createdAt,value
2023-05-12T00:01:16.828Z,11.13
2023-05-12T00:03:43.451Z,11.10
2023-05-12T00:06:10.357Z,11.07
2023-05-12T00:08:36.816Z,11.09
2023-05-12T00:11:03.355Z,11.05
2023-05-12T00:13:30.201Z,11.07
2023-05-12T00:15:59.061Z,11.07
2023-05-12T00:18:26.323Z,11.03
2023-05-12T00:20:54.409Z,11.03
2023-05-12T00:23:22.185Z,11.03
2023-05-12T00:25:49.022Z,11.05
2023-05-12T00:28:15.517Z,11.03
2023-05-12T00:30:41.911Z,11.03
2023-05-12T00:33:08.327Z,11.03
2023-05-12T00:35:34.728Z,11.01
2023-05-12T00:38:01.129Z,11.04
2023-05-12T00:40:27.523Z,11.01
2023-05-12T00:42:53.923Z,10.96
2023-05-12T00:45:21.779Z,10.92
2023-05-12T00:47:48.565Z,10.91
2023-05-12T00:50:15.354Z,10.90
2023-05-12T00:52:42.540Z,10.88
2023-05-12T00:55:09.359Z,10.84
2023-05-12T00:57:35.742Z,10.86
2023-05-12T01:00:02.177Z,10.86
2023-05-12T01:02:28.968Z,10.87
2023-05-12T01:04:55.455Z,10.86
2023-05-12T01:07:23.050Z,10.89
2023-05-12T01:09:54.526Z,10.90
2023-05-12T01:12:21.602Z,10.87
2023-05-12T01:14:48.544Z,10.87
2023-05-12T01:17:20.800Z,10.86
2023-05-12T01:19:59.967Z,10.84
2023-05-12T01:22:31.250Z,10.85
2023-05-12T01:24:59.784Z,10.87
2023-05-12T01:27:27.434Z,10.88
2023-05-12T01:29:57.764Z,10.90
2023-05-12T01:32:24.231Z,10.91
2023-05-12T01:34:50.680Z,10.92
2023-05-12T01:37:17.101Z,10.92
2023-05-12T01:39:43.703Z,10.94
2023-05-12T01:42:10.263Z,10.93
2023-05-12T01:44:36.677Z,10.94
2023-05-12T01:47:03.153Z,10.95
2023-05-12T01:49:29.596Z,10.95
2023-05-12T01:51:56.101Z,10.97
2023-05-12T01:54:22.701Z,10.95
2023-05-12T01:56:49.140Z,10.93
2023-05-12T01:59:15.726Z,10.95
2023-05-12T02:01:42.342Z,10.93
2023-05-12T02:04:09.135Z,10.92
2023-05-12T02:06:35.923Z,10.93
2023-05-12T02:09:02.674Z,10.94
2023-05-12T02:11:29.076Z,10.93
2023-05-12T02:13:55.472Z,10.93
2023-05-12T02:16:22.026Z,10.93
2023-05-12T02:18:48.490Z,10.94
2023-05-12T02:21:14.965Z,10.93
2023-05-12T02:23:41.448Z,10.94
2023-05-12T02:26:07.864Z,10.93
2023-05-12T02:28:34.254Z,10.91
2023-05-12T02:31:00.692Z,10.91
2023-05-12T02:33:27.089Z,10.92
2023-05-12T02:35:53.500Z,10.90
2023-05-12T02:38:19.903Z,10.89
2023-05-12T02:40:46.659Z,10.90
2023-05-12T02:43:13.162Z,10.91
2023-05-12T02:45:40.127Z,10.88
2023-05-12T02:48:06.693Z,10.88
2023-05-12T02:50:33.196Z,10.89
2023-05-12T02:52:59.653Z,10.87
2023-05-12T02:55:26.211Z,10.87
2023-05-12T02:57:53.421Z,10.86
2023-05-12T03:00:20.146Z,10.86
2023-05-12T03:02:46.761Z,10.86
2023-05-12T03:05:13.338Z,10.85
2023-05-12T03:07:39.904Z,10.85
2023-05-12T03:10:06.936Z,10.84
2023-05-12T03:12:33.367Z,10.82
2023-05-12T03:14:59.788Z,10.84
2023-05-12T03:17:26.429Z,10.84
2023-05-12T03:19:52.864Z,10.84
2023-05-12T03:22:19.377Z,10.85
2023-05-12T03:24:46.385Z,10.87
2023-05-12T03:27:12.777Z,10.87
2023-05-12T03:29:39.218Z,10.89
2023-05-12T03:32:06.177Z,10.90
2023-05-12T03:34:32.555Z,10.90
2023-05-12T03:36:58.914Z,10.91
2023-05-12T03:39:25.410Z,10.92
2023-05-12T03:41:51.844Z,10.93
2023-05-12T03:44:18.717Z,10.93
2023-05-12T03:46:45.514Z,10.93
2023-05-12T03:49:12.833Z,10.92
2023-05-12T03:51:39.353Z,10.93
2023-05-12T03:54:05.740Z,10.94
2023-05-12T03:56:32.178Z,10.93
2023-05-12T03:58:58.586Z,10.95
2023-05-12T04:01:24.982Z,10.95
2023-05-12T04:03:51.519Z,10.95
2023-05-12T04:06:17.974Z,10.97
2023-05-12T04:08:44.382Z,10.97
2023-05-12T04:11:11.003Z,10.99
2023-05-12T04:13:37.424Z,11.02
2023-05-12T04:16:04.254Z,11.03
2023-05-12T04:18:30.866Z,11.04
2023-05-12T04:20:57.351Z,11.04
2023-05-12T04:23:23.985Z,11.09
2023-05-12T04:25:50.491Z,11.11
2023-05-12T04:28:16.883Z,11.13
2023-05-12T04:30:43.350Z,11.16
2023-05-12T04:33:10.092Z,11.16
2023-05-12T04:35:36.832Z,11.20
2023-05-12T04:38:03.636Z,11.21
2023-05-12T04:40:32.079Z,11.23
2023-05-12T04:43:00.581Z,11.25
2023-05-12T04:45:27.067Z,11.26
2023-05-12T04:47:53.528Z,11.28
2023-05-12T04:50:20.077Z,11.30
2023-05-12T04:52:46.554Z,11.32
2023-05-12T04:55:12.930Z,11.33
2023-05-12T04:57:41.268Z,11.35
2023-05-12T05:00:09.072Z,11.36
2023-05-12T05:02:35.875Z,11.39
2023-05-12T05:05:02.426Z,11.41
2023-05-12T05:07:28.878Z,11.41
2023-05-12T05:09:55.251Z,11.45
2023-05-12T05:12:21.671Z,11.46
2023-05-12T05:14:48.071Z,11.48
2023-05-12T05:17:14.708Z,11.52
2023-05-12T05:19:54.987Z,11.55
2023-05-12T05:22:25.210Z,11.57
2023-05-12T05:24:51.876Z,11.60
2023-05-12T05:27:18.579Z,11.63
2023-05-12T05:29:44.980Z,11.66
2023-05-12T05:32:11.405Z,11.70
2023-05-12T05:34:38.236Z,11.74
2023-05-12T05:37:05.045Z,11.76
2023-05-12T05:39:31.544Z,11.79
2023-05-12T05:41:58.194Z,11.82
2023-05-12T05:44:25.157Z,11.87
2023-05-12T05:46:51.833Z,11.92
2023-05-12T05:49:18.586Z,11.96
2023-05-12T05:51:44.953Z,11.99
2023-05-12T05:54:12.031Z,12.00
2023-05-12T05:56:38.582Z,12.04
2023-05-12T05:59:05.288Z,12.05
2023-05-12T06:01:32.423Z,12.07
2023-05-12T06:03:59.198Z,12.11
2023-05-12T06:06:26.009Z,12.17
2023-05-12T06:08:52.449Z,12.21
2023-05-12T06:11:18.830Z,12.23
2023-05-12T06:13:45.320Z,12.27
2023-05-12T06:16:11.789Z,12.35
2023-05-12T06:18:38.630Z,12.40
2023-05-12T06:21:06.149Z,12.42
2023-05-12T06:23:32.618Z,12.43
2023-05-12T06:25:59.198Z,12.50
2023-05-12T06:28:25.605Z,12.55
2023-05-12T06:30:51.989Z,12.61
2023-05-12T06:33:18.430Z,12.65
2023-05-12T06:35:44.858Z,12.65
2023-05-12T06:38:11.257Z,12.71
2023-05-12T06:40:37.658Z,12.78
2023-05-12T06:43:04.070Z,12.84
2023-05-12T06:45:30.730Z,12.84
2023-05-12T06:47:57.838Z,12.88
2023-05-12T06:50:24.340Z,12.94
2023-05-12T06:52:50.853Z,13.01
2023-05-12T06:55:20.049Z,13.05
2023-05-12T06:57:46.636Z,13.06
2023-05-12T07:00:13.876Z,13.06
2023-05-12T07:02:40.542Z,13.08
2023-05-12T07:05:07.251Z,13.13
2023-05-12T07:07:33.688Z,13.22
2023-05-12T07:10:00.310Z,13.33
2023-05-12T07:12:26.937Z,13.39
2023-05-12T07:14:53.383Z,13.45
2023-05-12T07:17:19.739Z,13.61
2023-05-12T07:19:46.113Z,13.78
2023-05-12T07:22:17.580Z,13.93
2023-05-12T07:24:44.208Z,14.07
2023-05-12T07:27:10.934Z,14.31
2023-05-12T07:29:37.675Z,14.49
2023-05-12T07:32:04.858Z,14.68
2023-05-12T07:34:32.509Z,15.18
2023-05-12T07:36:59.563Z,15.37
2023-05-12T07:39:25.933Z,15.35
2023-05-12T07:41:54.011Z,15.43
2023-05-12T07:44:20.753Z,15.72
2023-05-12T07:46:47.251Z,15.81
2023-05-12T07:49:13.733Z,15.72
2023-05-12T07:51:40.143Z,15.68
2023-05-12T07:54:07.313Z,15.78
2023-05-12T07:56:33.870Z,15.83
2023-05-12T07:59:00.306Z,15.82
2023-05-12T08:01:26.724Z,15.93
2023-05-12T08:03:53.192Z,16.08
2023-05-12T08:06:19.629Z,16.17
2023-05-12T08:08:46.152Z,16.35
2023-05-12T08:11:12.775Z,16.45
2023-05-12T08:13:39.597Z,16.45
2023-05-12T08:16:06.277Z,16.44
2023-05-12T08:18:32.817Z,16.43
2023-05-12T08:20:59.235Z,16.51
2023-05-12T08:23:25.726Z,16.49
2023-05-12T08:25:52.098Z,16.39
2023-05-12T08:28:18.529Z,16.45
2023-05-12T08:30:45.555Z,16.51
2023-05-12T08:33:12.670Z,16.65
2023-05-12T08:35:39.590Z,16.89
2023-05-12T08:38:06.614Z,16.86
2023-05-12T08:40:54.480Z,17.05
2023-05-12T08:43:26.288Z,17.17
2023-05-12T08:45:57.459Z,17.20
2023-05-12T08:48:29.162Z,17.27
2023-05-12T08:50:57.853Z,17.42
2023-05-12T08:53:25.728Z,17.58
2023-05-12T08:57:08.113Z,17.94
2023-05-12T08:58:42.209Z,18.03
2023-05-12T09:01:11.699Z,18.21
2023-05-12T09:03:38.998Z,18.41
2023-05-12T09:06:06.635Z,18.68
2023-05-12T09:08:34.934Z,18.57
2023-05-12T09:11:02.488Z,18.45
2023-05-12T09:14:00.967Z,18.17
2023-05-12T09:16:30.232Z,17.99
2023-05-12T09:18:58.857Z,18.02
2023-05-12T09:21:26.460Z,18.01
2023-05-12T09:24:06.082Z,18.11
2023-05-12T09:26:45.337Z,18.04
2023-05-12T09:29:20.838Z,18.01
2023-05-12T09:32:00.270Z,17.98
2023-05-12T09:34:31.766Z,17.97
2023-05-12T09:37:01.130Z,17.96
2023-05-12T09:39:28.844Z,17.93
2023-05-12T09:41:55.831Z,18.04
2023-05-12T09:44:23.977Z,18.01
2023-05-12T09:46:51.910Z,17.89
2023-05-12T09:49:20.366Z,17.87
2023-05-12T09:51:59.219Z,17.78
2023-05-12T09:54:29.848Z,17.80
2023-05-12T09:57:00.341Z,17.96
2023-05-12T09:59:31.391Z,18.26
2023-05-12T10:02:00.784Z,18.43
2023-05-12T10:04:29.975Z,18.59
2023-05-12T10:06:58.411Z,18.76
2023-05-12T10:09:39.174Z,18.85
2023-05-12T10:12:06.490Z,18.96
2023-05-12T10:14:33.766Z,19.12
2023-05-12T10:17:00.890Z,19.11
2023-05-12T10:19:32.935Z,18.97
2023-05-12T10:22:00.529Z,19.08
2023-05-12T10:24:27.585Z,19.21
2023-05-12T10:26:57.572Z,19.25
2023-05-12T10:29:29.980Z,19.22
2023-05-12T10:31:57.638Z,19.17
2023-05-12T10:34:30.620Z,18.96
2023-05-12T10:36:58.296Z,19.10
2023-05-12T10:39:29.656Z,19.25
2023-05-12T10:42:06.437Z,19.44
2023-05-12T10:44:32.963Z,19.50
2023-05-12T10:47:02.143Z,19.58
2023-05-12T10:49:40.042Z,19.88
2023-05-12T10:52:07.460Z,19.96
2023-05-12T10:54:44.303Z,20.01
2023-05-12T10:57:18.203Z,20.25
2023-05-12T11:00:01.610Z,20.08
2023-05-12T11:02:36.244Z,19.80
2023-05-12T11:05:12.471Z,19.86
2023-05-12T11:07:39.868Z,19.97
2023-05-12T11:10:07.944Z,20.00
2023-05-12T11:12:37.839Z,20.07
2023-05-12T11:15:06.626Z,20.10
2023-05-12T11:17:33.563Z,19.93
2023-05-12T11:20:01.355Z,20.12
2023-05-12T11:22:28.277Z,20.21
2023-05-12T11:24:54.748Z,20.09
2023-05-12T11:27:23.153Z,20.00
2023-05-12T11:29:58.270Z,19.99
2023-05-12T11:32:24.821Z,19.82
2023-05-12T11:34:51.325Z,20.01
2023-05-12T11:37:21.048Z,20.22
2023-05-12T11:39:48.009Z,20.20
2023-05-12T11:42:16.300Z,20.31
2023-05-12T11:44:49.160Z,20.38
2023-05-12T11:47:16.662Z,20.34
2023-05-12T11:49:51.785Z,20.41
2023-05-12T11:52:20.222Z,20.30
2023-05-12T11:54:51.539Z,20.44
2023-05-12T11:57:27.489Z,20.53
2023-05-12T12:00:07.183Z,20.67
2023-05-12T12:02:34.463Z,20.54
2023-05-12T12:05:01.200Z,20.33
2023-05-12T12:07:36.953Z,20.35
2023-05-12T12:10:13.841Z,20.73
2023-05-12T12:12:41.175Z,21.00
2023-05-12T12:15:08.575Z,21.30
2023-05-12T12:17:34.948Z,21.50
2023-05-12T12:20:01.587Z,21.48
2023-05-12T12:22:28.049Z,21.22
2023-05-12T12:24:54.406Z,21.01
2023-05-12T12:27:20.758Z,21.05
2023-05-12T12:29:47.268Z,21.08
2023-05-12T12:32:13.670Z,21.20
2023-05-12T12:34:41.329Z,21.04
2023-05-12T12:37:07.785Z,20.86
2023-05-12T12:39:34.222Z,20.74
2023-05-12T12:42:00.570Z,20.68
2023-05-12T12:44:27.332Z,20.66
2023-05-12T12:46:54.004Z,20.68
2023-05-12T12:49:20.445Z,20.67
2023-05-12T12:51:47.377Z,20.65
2023-05-12T12:54:15.217Z,20.69
2023-05-12T12:56:43.148Z,20.86
2023-05-12T12:59:09.576Z,20.95
2023-05-12T13:01:36.099Z,20.85
2023-05-12T13:04:02.754Z,20.74
2023-05-12T13:06:29.240Z,20.65
2023-05-12T13:08:56.340Z,20.57
2023-05-12T13:11:22.748Z,20.64
2023-05-12T13:13:49.118Z,20.61
2023-05-12T13:16:15.860Z,20.63
2023-05-12T13:18:42.374Z,20.61
2023-05-12T13:21:08.840Z,20.75
2023-05-12T13:23:35.320Z,20.85
2023-05-12T13:26:01.715Z,20.71
2023-05-12T13:28:28.895Z,20.83
2023-05-12T13:30:55.409Z,21.00
2023-05-12T13:33:22.026Z,20.96
2023-05-12T13:35:48.457Z,21.14
2023-05-12T13:38:15.160Z,21.31
2023-05-12T13:40:41.829Z,21.66
2023-05-12T13:43:08.436Z,21.85
2023-05-12T13:45:34.896Z,21.65
2023-05-12T13:48:01.350Z,21.64
2023-05-12T13:50:27.806Z,21.70
2023-05-12T13:52:54.242Z,21.47
2023-05-12T13:55:21.643Z,21.33
2023-05-12T13:57:48.879Z,21.28
2023-05-12T14:00:17.208Z,21.12
2023-05-12T14:02:43.843Z,21.16
2023-05-12T14:05:10.684Z,21.08
2023-05-12T14:07:37.419Z,21.08
2023-05-12T14:10:04.003Z,20.90
2023-05-12T14:12:31.291Z,20.59
2023-05-12T14:15:07.361Z,20.51
2023-05-12T14:17:44.341Z,20.52
2023-05-12T14:20:11.512Z,20.96
2023-05-12T14:22:37.862Z,21.42
2023-05-12T14:25:04.861Z,21.57
2023-05-12T14:27:31.249Z,21.47
2023-05-12T14:29:57.717Z,21.55
2023-05-12T14:32:24.185Z,21.52
2023-05-12T14:34:50.571Z,21.58
2023-05-12T14:37:16.958Z,21.78
2023-05-12T14:39:43.752Z,22.03
2023-05-12T14:42:10.142Z,22.18
2023-05-12T14:44:38.847Z,22.44
2023-05-12T14:47:07.451Z,22.40
2023-05-12T14:49:35.173Z,22.37
2023-05-12T14:52:02.492Z,22.60
2023-05-12T14:54:28.868Z,22.19
2023-05-12T14:56:55.429Z,22.09
2023-05-12T14:59:22.076Z,22.16
2023-05-12T15:01:48.621Z,22.15
2023-05-12T15:04:15.160Z,21.99
2023-05-12T15:06:41.719Z,21.75
2023-05-12T15:09:08.435Z,21.55
2023-05-12T15:11:34.799Z,21.59
2023-05-12T15:14:01.390Z,21.81
2023-05-12T15:16:28.050Z,22.00
2023-05-12T15:18:54.650Z,21.68
2023-05-12T15:21:21.126Z,21.85
2023-05-12T15:23:47.793Z,22.17
2023-05-12T15:26:31.220Z,22.41
2023-05-12T15:28:59.495Z,22.62
2023-05-12T15:31:28.679Z,22.87
2023-05-12T15:33:56.422Z,22.96
2023-05-12T15:36:22.876Z,22.64
2023-05-12T15:38:49.330Z,22.01
2023-05-12T15:41:15.768Z,21.39
2023-05-12T15:43:42.421Z,20.38
2023-05-12T15:46:10.761Z,19.52
2023-05-12T15:48:37.522Z,18.87
2023-05-12T15:51:04.170Z,18.38
2023-05-12T15:53:33.512Z,18.04
2023-05-12T15:56:04.154Z,17.98
2023-05-12T15:58:31.394Z,18.00
2023-05-12T16:00:58.292Z,18.13
2023-05-12T16:03:24.882Z,18.20
2023-05-12T16:05:51.857Z,18.35
2023-05-12T16:08:18.789Z,18.49
2023-05-12T16:10:45.302Z,18.59
2023-05-12T16:13:11.723Z,18.71
2023-05-12T16:15:38.374Z,18.85
2023-05-12T16:18:06.954Z,18.97
2023-05-12T16:20:35.096Z,19.02
2023-05-12T16:23:02.340Z,19.03
2023-05-12T16:25:29.061Z,19.08
2023-05-12T16:27:55.896Z,19.10
2023-05-12T16:30:22.347Z,19.19
2023-05-12T16:32:48.742Z,19.22
2023-05-12T16:35:15.174Z,19.20
2023-05-12T16:37:41.620Z,19.20
2023-05-12T16:40:09.518Z,19.18
2023-05-12T16:42:36.527Z,19.17
2023-05-12T16:45:03.093Z,19.16
2023-05-12T16:47:29.757Z,19.16
2023-05-12T16:49:58.073Z,19.09
2023-05-12T16:52:25.273Z,19.11
2023-05-12T16:54:51.841Z,19.09
2023-05-12T16:57:18.739Z,19.06
2023-05-12T16:59:45.437Z,19.05
2023-05-12T17:02:11.892Z,19.05
2023-05-12T17:04:38.299Z,19.02
2023-05-12T17:07:04.889Z,19.03
2023-05-12T17:09:31.301Z,19.07
2023-05-12T17:11:57.697Z,19.14
2023-05-12T17:14:24.137Z,19.20
2023-05-12T17:16:50.506Z,19.18
2023-05-12T17:19:17.005Z,19.20
2023-05-12T17:21:43.432Z,19.22
2023-05-12T17:24:10.042Z,19.22
2023-05-12T17:26:36.476Z,19.16
2023-05-12T17:29:03.100Z,19.15
2023-05-12T17:31:29.673Z,19.18
2023-05-12T17:33:56.209Z,19.18
2023-05-12T17:36:23.180Z,19.17
2023-05-12T17:38:51.049Z,19.15
2023-05-12T17:41:18.151Z,19.16
2023-05-12T17:43:44.565Z,19.18
2023-05-12T17:46:10.934Z,19.25
2023-05-12T17:48:38.500Z,19.25
2023-05-12T17:51:05.311Z,19.24
2023-05-12T17:53:32.362Z,19.24
2023-05-12T17:55:58.954Z,19.21
2023-05-12T17:58:25.469Z,19.21
2023-05-12T18:00:52.202Z,19.16
2023-05-12T18:03:23.275Z,19.11
2023-05-12T18:05:52.082Z,19.13
2023-05-12T18:08:18.935Z,19.13
2023-05-12T18:10:45.660Z,19.16
2023-05-12T18:13:12.176Z,19.16
2023-05-12T18:15:38.583Z,19.11
2023-05-12T18:18:09.067Z,19.07
2023-05-12T18:20:35.647Z,19.03
2023-05-12T18:23:02.155Z,18.94
2023-05-12T18:25:28.566Z,18.87
2023-05-12T18:27:54.936Z,18.78
2023-05-12T18:30:21.330Z,18.70
2023-05-12T18:32:47.842Z,18.62
2023-05-12T18:35:14.324Z,18.49
2023-05-12T18:37:40.762Z,18.41
2023-05-12T18:40:08.269Z,18.33
2023-05-12T18:42:34.915Z,18.28
2023-05-12T18:45:01.643Z,18.22
2023-05-12T18:47:28.561Z,18.12
2023-05-12T18:49:55.082Z,18.02
2023-05-12T18:52:21.488Z,17.95
2023-05-12T18:54:49.671Z,17.89
2023-05-12T18:57:16.892Z,17.84
2023-05-12T18:59:43.513Z,17.76
2023-05-12T19:02:10.207Z,17.71
2023-05-12T19:04:37.001Z,17.62
2023-05-12T19:07:03.952Z,17.54
2023-05-12T19:09:30.501Z,17.46
2023-05-12T19:11:56.893Z,17.36
2023-05-12T19:14:23.781Z,17.26
2023-05-12T19:16:50.301Z,17.20
2023-05-12T19:19:17.272Z,17.12
2023-05-12T19:21:43.948Z,17.05
2023-05-12T19:24:10.646Z,16.98
2023-05-12T19:26:37.397Z,16.94
2023-05-12T19:29:04.421Z,16.89
2023-05-12T19:31:31.210Z,16.83
2023-05-12T19:33:57.674Z,16.80
2023-05-12T19:36:24.211Z,16.71
2023-05-12T19:38:50.651Z,16.64
2023-05-12T19:41:17.043Z,16.58
2023-05-12T19:43:43.499Z,16.52
2023-05-12T19:46:09.971Z,16.44
2023-05-12T19:48:36.459Z,16.39
2023-05-12T19:51:03.088Z,16.31
2023-05-12T19:53:29.534Z,16.25
2023-05-12T19:55:56.629Z,16.18
2023-05-12T19:58:23.194Z,16.15
2023-05-12T20:00:49.716Z,16.12
2023-05-12T20:03:16.216Z,16.14
2023-05-12T20:05:42.732Z,16.15
2023-05-12T20:08:09.197Z,16.08
2023-05-12T20:10:35.734Z,16.08
2023-05-12T20:13:05.392Z,16.06
2023-05-12T20:15:33.962Z,16.04
2023-05-12T20:18:00.857Z,16.00
2023-05-12T20:20:27.306Z,15.93
2023-05-12T20:22:53.768Z,15.94
2023-05-12T20:25:20.410Z,15.95
2023-05-12T20:27:48.002Z,15.93
2023-05-12T20:30:14.591Z,15.90
2023-05-12T20:32:41.061Z,15.88
2023-05-12T20:35:07.903Z,15.81
2023-05-12T20:37:34.331Z,15.80
2023-05-12T20:40:00.788Z,15.76
2023-05-12T20:42:27.227Z,15.72
2023-05-12T20:44:53.837Z,15.75
2023-05-12T20:47:20.409Z,15.82
2023-05-12T20:49:47.129Z,15.73
2023-05-12T20:52:13.594Z,15.65
2023-05-12T20:54:39.966Z,15.56
2023-05-12T20:57:06.432Z,15.55
2023-05-12T20:59:32.896Z,15.59
2023-05-12T21:01:59.295Z,15.56
2023-05-12T21:04:25.979Z,15.56
2023-05-12T21:06:53.802Z,15.43
2023-05-12T21:09:20.401Z,15.39
2023-05-12T21:11:47.206Z,15.31
2023-05-12T21:14:13.658Z,15.26
2023-05-12T21:16:40.264Z,15.21
2023-05-12T21:19:07.108Z,15.09
2023-05-12T21:21:33.764Z,15.05
2023-05-12T21:24:00.200Z,15.03
2023-05-12T21:26:27.208Z,15.09
2023-05-12T21:28:53.643Z,14.99
2023-05-12T21:31:20.114Z,14.93
2023-05-12T21:33:46.729Z,15.04
2023-05-12T21:36:13.363Z,15.08
2023-05-12T21:38:39.779Z,15.06
2023-05-12T21:41:06.285Z,15.05
2023-05-12T21:43:32.737Z,15.08
2023-05-12T21:46:03.683Z,15.07
2023-05-12T21:48:30.483Z,15.06
2023-05-12T21:50:58.852Z,15.05
2023-05-12T21:53:25.384Z,14.97
2023-05-12T21:55:51.773Z,14.94
2023-05-12T21:58:18.368Z,14.93
2023-05-12T22:00:44.817Z,15.00
2023-05-12T22:03:11.299Z,15.08
2023-05-12T22:05:37.854Z,15.10
2023-05-12T22:08:04.315Z,15.11
2023-05-12T22:10:31.945Z,15.11
2023-05-12T22:12:58.346Z,15.11
2023-05-12T22:15:24.740Z,15.10
2023-05-12T22:17:51.630Z,15.09
2023-05-12T22:20:18.948Z,15.09
2023-05-12T22:22:45.629Z,15.02
2023-05-12T22:25:12.127Z,15.07
2023-05-12T22:27:38.578Z,15.06
2023-05-12T22:30:05.948Z,15.04
2023-05-12T22:32:32.379Z,14.99
2023-05-12T22:34:58.750Z,14.95
2023-05-12T22:37:26.432Z,15.04
2023-05-12T22:39:52.823Z,15.04
2023-05-12T22:42:19.491Z,14.96
2023-05-12T22:44:45.958Z,14.99
2023-05-12T22:47:12.654Z,15.00
2023-05-12T22:49:39.148Z,15.08
2023-05-12T22:52:06.074Z,15.08
2023-05-12T22:54:32.557Z,15.11
2023-05-12T22:56:58.897Z,15.10
2023-05-12T22:59:25.397Z,15.09
2023-05-12T23:01:51.814Z,15.03
2023-05-12T23:04:18.253Z,15.08
2023-05-12T23:06:44.688Z,15.05
2023-05-12T23:09:11.363Z,15.04
2023-05-12T23:11:37.752Z,15.01
2023-05-12T23:14:04.194Z,14.94
2023-05-12T23:16:30.723Z,14.91
2023-05-12T23:18:57.215Z,14.93
2023-05-12T23:21:23.651Z,14.91
2023-05-12T23:23:50.057Z,14.91
2023-05-12T23:26:16.409Z,14.93
2023-05-12T23:28:42.773Z,14.85
2023-05-12T23:31:10.184Z,14.82
2023-05-12T23:33:36.808Z,14.73
2023-05-12T23:36:03.566Z,14.71
2023-05-12T23:38:29.928Z,14.67
2023-05-12T23:40:56.297Z,14.65
2023-05-12T23:43:22.788Z,14.63
2023-05-12T23:45:49.368Z,14.63
2023-05-12T23:48:15.793Z,14.53
2023-05-12T23:50:42.265Z,14.53
2023-05-12T23:53:08.778Z,14.41
2023-05-12T23:55:36.886Z,14.35
2023-05-12T23:58:03.353Z,14.27
